Terminal Aerodrome Forecast
Issued by NWS Wakefield, VA

Home | Current Version | Previous Version | Text Only | Print | Product List | Glossary On
Versions: 1 2 3 4 5 6 7 8 9 10 11 12 13 14 15 16 17 18 19 20 21
000
FTUS41 KAKQ 222300
TAFRIC
TAF
KRIC 222340Z 2300/2324 12007KT P6SM SCT080 BKN250
     FM230400 18003KT P6SM BKN250
     FM230900 22003KT 5SM BR BKN250
     FM231300 24006KT P6SM SCT250=

USA.gov is the U.S. government's official web portal to all federal, state and local government web resources and services.